Time;durP1;ratioP1;P1;durP2;ratioP2;P2;SDS_P1;SDS_P2;PMS_P1;PMS_P2;Temp;Humidity;BMP_temperature;BMP_pressure;BME280_temperature;BME280_humidity;BME280_pressure;Samples;Min_cycle;Max_cycle;Signal;HPM_P1;HPM_P2
2023/04/12 00:00:36;;;;;;;30.37;15.77;;;;;;;8.94;100.00;99200.66;124269;1099;104325;-81
2023/04/12 00:03:19;;;;;;;30.27;15.40;;;;;;;8.93;100.00;99196.27;124294;1099;105569;-81
2023/04/12 00:05:53;;;;;;;28.30;16.30;;;;;;;8.93;100.00;99204.12;124484;1099;104271;-81
2023/04/12 00:08:25;;;;;;;;;;;;;;;8.92;100.00;99199.72;124537;1099;104274;-82
2023/04/12 00:10:59;;;;;;;30.53;14.80;;;;;;;8.93;100.00;99196.27;124241;1099;104326;-81
2023/04/12 00:13:30;;;;;;;27.45;15.38;;;;;;;8.93;100.00;99200.63;124468;1099;104274;-81
2023/04/12 00:16:01;;;;;;;32.30;16.00;;;;;;;8.94;100.00;99204.98;123929;1099;104277;-82
2023/04/12 00:18:33;;;;;;;34.13;16.67;;;;;;;8.97;100.00;99199.82;124392;1099;104274;-83
2023/04/12 00:21:04;;;;;;;29.03;16.77;;;;;;;8.99;100.00;99201.63;124486;1099;104374;-83
2023/04/12 00:23:36;;;;;;;29.77;16.60;;;;;;;8.99;100.00;99209.48;124587;1099;104309;-83
2023/04/12 00:26:08;;;;;;;31.00;16.63;;;;;;;8.98;100.00;99212.06;124371;1099;104223;-82
2023/04/12 00:28:41;;;;;;;29.33;16.43;;;;;;;8.99;100.00;99201.63;124409;1099;104372;-83
2023/04/12 00:31:12;;;;;;;34.13;18.30;;;;;;;9.02;100.00;99198.17;124708;1099;104194;-83
2023/04/12 00:33:44;;;;;;;31.07;17.30;;;;;;;9.03;100.00;99201.70;124732;1099;104332;-81
2023/04/12 00:36:16;;;;;;;31.33;17.73;;;;;;;9.04;100.00;99204.34;124220;1099;104248;-82
2023/04/12 00:38:47;;;;;;;29.20;17.77;;;;;;;9.02;100.00;99207.77;124209;1099;104625;-81
2023/04/12 00:41:19;;;;;;;29.93;16.10;;;;;;;8.99;100.00;99204.25;123956;1099;104306;-81
2023/04/12 00:43:51;;;;;;;33.50;17.57;;;;;;;8.99;100.00;99191.16;124494;1099;104277;-85
2023/04/12 00:46:22;;;;;;;33.73;18.17;;;;;;;8.98;100.00;99192.00;124107;1099;104432;-82
2023/04/12 00:48:55;;;;;;;27.97;17.50;;;;;;;8.97;100.00;99197.20;123841;1099;104415;-82
2023/04/12 00:51:32;;;;;;;31.47;16.90;;;;;;;8.96;100.00;99206.80;124389;1099;104248;-81
2023/04/12 00:54:04;;;;;;;36.50;17.60;;;;;;;8.97;100.00;99198.08;124233;1099;104208;-81
2023/04/12 00:56:36;;;;;;;34.63;18.47;;;;;;;8.98;100.00;99204.21;124089;1099;104278;-80
2023/04/12 00:59:08;;;;;;;34.57;18.53;;;;;;;8.98;100.00;99205.09;124151;1099;104450;-80
2023/04/12 01:01:39;;;;;;;34.70;18.27;;;;;;;8.98;100.00;99207.70;123859;1099;104804;-82
2023/04/12 01:04:12;;;;;;;31.17;18.53;;;;;;;8.97;100.00;99205.05;123992;1099;104331;-82
2023/04/12 01:07:03;;;;;;;35.93;20.17;;;;;;;8.96;100.00;99204.18;123956;1099;104354;-82
2023/04/12 01:09:50;;;;;;;35.83;20.07;;;;;;;8.97;100.00;99200.69;123730;1099;104252;-81
2023/04/12 01:12:34;;;;;;;37.93;21.13;;;;;;;8.96;100.00;99196.33;123862;1099;104220;-82
2023/04/12 01:15:10;;;;;;;39.33;21.33;;;;;;;8.97;100.00;99194.59;124124;1102;107967;-82
2023/04/12 01:17:56;;;;;;;38.40;21.80;;;;;;;8.97;100.00;99178.89;124309;1098;104284;-81
2023/04/12 01:20:34;;;;;;;41.97;24.73;;;;;;;8.96;100.00;99172.78;124050;1099;104374;-80
2023/04/12 01:23:30;;;;;;;41.07;24.37;;;;;;;8.96;100.00;99162.32;124047;1099;104258;-82
2023/04/12 01:26:31;;;;;;;38.53;22.33;;;;;;;8.96;100.00;99167.55;124086;1099;104734;-81
2023/04/12 01:29:10;;;;;;;39.00;20.70;;;;;;;8.96;100.00;99172.78;123975;1098;104277;-81
2023/04/12 01:31:48;;;;;;;36.17;20.43;;;;;;;8.96;100.00;99164.03;123855;1098;104463;-80
2023/04/12 01:34:22;;;;;;;40.23;21.33;;;;;;;8.94;100.00;99157.89;124150;1098;104307;-83
2023/04/12 01:36:55;;;;;;;40.73;21.07;;;;;;;8.96;100.00;99166.64;124263;1099;104281;-82
2023/04/12 01:39:27;;;;;;;34.73;20.17;;;;;;;8.95;100.00;99154.44;124112;1098;104304;-82
2023/04/12 01:41:58;;;;;;;38.45;20.35;;;;;;;8.96;100.00;99150.95;124151;1099;104348;-82
2023/04/12 01:44:30;;;;;;;37.60;19.10;;;;;;;8.96;100.00;99145.72;124038;1099;104351;-81
2023/04/12 01:47:01;;;;;;;38.27;20.30;;;;;;;8.96;100.00;99146.63;124503;1098;104373;-80
2023/04/12 01:49:39;;;;;;;37.03;20.00;;;;;;;8.96;100.00;99144.00;124435;1099;104248;-80
2023/04/12 01:52:17;;;;;;;41.13;20.57;;;;;;;8.96;100.00;99144.00;124475;1099;104294;-82
2023/04/12 01:54:55;;;;;;;40.93;21.03;;;;;;;8.98;100.00;99141.42;123995;1099;104175;-81
2023/04/12 01:57:27;;;;;;;40.63;19.80;;;;;;;8.99;100.00;99144.07;124073;1099;104514;-80
2023/04/12 02:00:05;;;;;;;35.80;20.67;;;;;;;9.00;100.00;99139.70;123877;1099;104300;-81
2023/04/12 02:02:44;;;;;;;34.80;20.73;;;;;;;9.01;100.00;99151.95;124157;1099;104252;-81
2023/04/12 02:05:17;;;;;;;42.13;20.40;;;;;;;9.00;100.00;99148.42;124156;1099;104304;-81
2023/04/12 02:07:50;;;;;;;40.80;20.67;;;;;;;9.03;100.00;99146.75;123909;1099;104405;-81
2023/04/12 02:10:31;;;;;;;35.70;19.90;;;;;;;9.00;100.00;99144.94;123857;1099;104235;-81
2023/04/12 02:13:04;;;;;;;40.07;19.57;;;;;;;8.99;100.00;99148.39;123810;1099;104264;-80
2023/04/12 02:15:36;;;;;;;39.87;19.70;;;;;;;8.98;100.00;99139.67;124109;1098;104271;-80
2023/04/12 02:18:07;;;;;;;38.13;21.17;;;;;;;8.99;100.00;99144.07;124211;1098;104383;-81
2023/04/12 02:20:39;;;;;;;35.10;19.90;;;;;;;8.99;100.00;99133.60;124112;1099;104306;-81
2023/04/12 02:23:12;;;;;;;41.90;19.55;;;;;;;8.99;100.00;99141.45;124258;1099;104355;-81
2023/04/12 02:25:45;;;;;;;37.43;20.90;;;;;;;8.99;100.00;99141.45;124003;1099;104310;-81
2023/04/12 02:28:17;;;;;;;43.90;22.30;;;;;;;8.98;100.00;99144.03;123795;1102;104277;-81
2023/04/12 02:30:52;;;;;;;37.63;21.57;;;;;;;8.98;100.00;99139.67;123898;1099;104223;-82
2023/04/12 02:33:27;;;;;;;42.90;24.37;;;;;;;8.99;100.00;99136.22;123822;1099;104415;-81
2023/04/12 02:36:01;;;;;;;45.47;25.13;;;;;;;9.01;100.00;99141.48;124065;1099;104287;-82
2023/04/12 02:38:32;;;;;;;42.37;24.83;;;;;;;9.03;100.00;99138.90;124120;1099;104264;-80
2023/04/12 02:41:08;;;;;;;51.07;26.07;;;;;;;9.04;100.00;99136.31;124469;1099;104248;-82
2023/04/12 02:43:40;;;;;;;46.73;25.73;;;;;;;9.07;100.00;99144.22;124460;1099;104351;-80
2023/04/12 02:46:14;;;;;;;50.70;27.10;;;;;;;9.10;100.00;99148.61;123996;1099;104412;-80
2023/04/12 02:48:49;;;;;;;47.10;27.00;;;;;;;9.13;100.00;99138.20;123920;1099;104303;-81
2023/04/12 02:51:36;;;;;;;50.60;27.30;;;;;;;9.16;100.00;99139.17;124069;1099;104178;-83
2023/04/12 02:54:15;;;;;;;52.20;29.83;;;;;;;9.17;100.00;99129.58;123955;1099;104364;-80
2023/04/12 02:56:58;;;;;;;47.10;26.07;;;;;;;9.15;100.00;99133.91;124203;1099;104226;-80
2023/04/12 02:59:43;;;;;;;44.80;25.17;;;;;;;9.10;100.00;99131.20;124353;1099;104324;-79
2023/04/12 03:02:27;;;;;;;43.27;24.93;;;;;;;9.09;100.00;99131.17;124433;1099;104274;-82
2023/04/12 03:05:03;;;;;;;45.73;25.23;;;;;;;9.07;100.00;99133.76;124059;1099;104284;-81
2023/04/12 03:07:41;;;;;;;50.97;27.43;;;;;;;9.08;100.00;99139.86;123991;1099;104258;-81
2023/04/12 03:10:15;;;;;;;52.90;27.40;;;;;;;9.08;100.00;99134.63;124537;1099;104348;-81
2023/04/12 03:12:55;;;;;;;44.17;23.77;;;;;;;9.09;100.00;99131.17;124018;1099;104440;-83
2023/04/12 03:15:35;;;;;;;46.43;22.60;;;;;;;9.09;100.00;99137.28;124738;1098;104207;-81
2023/04/12 03:18:13;;;;;;;46.20;22.93;;;;;;;9.09;100.00;99141.64;124598;1099;110667;-82
2023/04/12 03:23:53;;;;;;;42.20;21.50;;;;;;;9.11;100.00;99137.30;124050;1102;104213;-82
2023/04/12 03:26:26;;;;;;;41.67;22.00;;;;;;;9.12;100.00;99136.47;123951;1099;104310;-82
2023/04/12 03:29:17;;;;;;;42.37;22.70;;;;;;;9.15;100.00;99132.16;123955;1101;104287;-81
2023/04/12 03:31:48;;;;;;;46.43;23.50;;;;;;;9.18;100.00;99126.98;123838;1102;104297;-82
2023/04/12 03:34:20;;;;;;;44.70;22.87;;;;;;;9.19;100.00;99125.24;123893;1099;104283;-82
2023/04/12 03:36:55;;;;;;;44.67;24.57;;;;;;;9.19;100.00;99127.86;124383;1102;104406;-82
2023/04/12 03:39:43;;;;;;;44.70;23.63;;;;;;;9.20;100.00;99119.17;124123;1102;107640;-81
2023/04/12 03:42:16;;;;;;;50.83;25.10;;;;;;;9.18;100.00;99115.66;124117;1099;104319;-82
2023/04/12 03:44:52;;;;;;;50.87;25.07;;;;;;;9.20;100.00;99110.45;123910;1102;104326;-82
2023/04/12 03:47:23;;;;;;;;;;;;;;;9.20;100.00;99113.06;123975;1099;104258;-81
2023/04/12 03:49:56;;;;;;;54.25;26.60;;;;;;;9.16;100.00;99107.77;124078;1099;118772;-81
2023/04/12 03:52:27;;;;;;;55.67;28.60;;;;;;;9.23;100.00;99119.23;123882;1099;104214;-80
2023/04/12 03:54:59;;;;;;;57.77;28.60;;;;;;;9.26;100.00;99124.52;123978;1102;104287;-81
2023/04/12 03:57:31;;;;;;;63.17;29.83;;;;;;;9.28;100.00;99124.55;124117;1099;104255;-80
2023/04/12 04:00:03;;;;;;;56.30;27.87;;;;;;;9.30;100.00;99128.97;123997;1102;104597;-81
2023/04/12 04:02:49;;;;;;;51.87;27.27;;;;;;;9.30;100.00;99131.59;123980;1099;104325;-80
2023/04/12 04:05:23;;;;;;;52.83;26.13;;;;;;;9.32;100.00;99123.77;123747;1102;104388;-81
2023/04/12 04:08:03;;;;;;;48.17;25.83;;;;;;;9.30;100.00;99121.12;124011;1099;104347;-82
2023/04/12 04:10:46;;;;;;;49.67;25.67;;;;;;;9.30;100.00;99114.98;123921;1099;109571;-83
2023/04/12 04:13:17;;;;;;;44.57;24.33;;;;;;;9.27;100.00;99126.30;123948;1099;104278;-83
2023/04/12 04:15:58;;;;;;;47.10;25.57;;;;;;;9.25;100.00;99127.98;124204;1099;104139;-81
2023/04/12 04:18:31;;;;;;;50.67;25.50;;;;;;;9.25;100.00;99127.98;124174;1099;104363;-82
2023/04/12 04:21:03;;;;;;;46.20;25.07;;;;;;;9.27;100.00;99131.53;124273;1098;104257;-84
2023/04/12 04:23:38;;;;;;;45.80;24.23;;;;;;;9.28;100.00;99135.89;124372;1102;102150;-85
2023/04/12 04:26:11;;;;;;;44.50;23.95;;;;;;;9.29;100.00;99142.90;124283;1099;104183;-85
2023/04/12 04:28:49;;;;;;;42.97;24.73;;;;;;;9.27;100.00;99144.62;124873;1102;104252;-83
2023/04/12 04:31:25;;;;;;;43.77;24.60;;;;;;;9.27;100.00;99147.23;124414;1100;104179;-84
2023/04/12 04:33:57;;;;;;;43.93;22.33;;;;;;;9.29;100.00;99153.38;125055;1099;104168;-84
2023/04/12 04:36:35;;;;;;;41.67;22.97;;;;;;;9.31;100.00;99159.51;124329;1099;104417;-83
2023/04/12 04:39:07;;;;;;;41.40;23.18;;;;;;;9.31;100.00;99156.89;124620;1099;104229;-82
2023/04/12 04:41:45;;;;;;;43.80;22.37;;;;;;;9.33;100.00;99162.16;124202;1101;104307;-84
2023/04/12 04:44:34;;;;;;;37.10;20.37;;;;;;;9.29;100.00;99160.35;124426;1102;104517;-81
2023/04/12 04:47:08;;;;;;;42.47;21.97;;;;;;;9.27;100.00;99162.94;124065;1102;104843;-84
2023/04/12 04:49:40;;;;;;;35.43;21.07;;;;;;;9.27;100.00;99156.80;124906;1099;104221;-82
2023/04/12 04:52:28;;;;;;;40.40;20.87;;;;;;;9.29;100.00;99149.88;124190;1102;104264;-83
2023/04/12 04:55:04;;;;;;;37.80;20.97;;;;;;;9.28;100.00;99154.21;124758;1102;104370;-86
2023/04/12 04:57:39;;;;;;;45.13;23.67;;;;;;;9.30;100.00;99152.53;124854;1102;104305;-83
2023/04/12 05:00:15;;;;;;;41.70;22.47;;;;;;;9.32;100.00;99152.56;124719;1099;104281;-84
2023/04/12 05:02:48;;;;;;;49.67;24.33;;;;;;;9.33;100.00;99160.44;125217;1098;101872;-84
2023/04/12 05:05:27;;;;;;;43.00;23.40;;;;;;;9.34;100.00;99154.33;124580;1099;104175;-83
2023/04/12 05:08:05;;;;;;;43.20;24.13;;;;;;;9.34;100.00;99159.56;126068;1099;102482;-82
2023/04/12 05:10:47;;;;;;;41.10;23.07;;;;;;;9.36;100.00;99156.98;126022;1101;102772;-84
2023/04/12 05:13:18;;;;;;;49.13;26.70;;;;;;;9.45;100.00;99156.28;124667;1099;104303;-83
2023/04/12 05:15:50;;;;;;;46.13;25.43;;;;;;;9.50;100.00;99154.63;124861;1099;102680;-82
2023/04/12 05:18:21;;;;;;;45.33;24.90;;;;;;;9.50;100.00;99157.24;124969;1102;102216;-82
2023/04/12 05:20:54;;;;;;;46.83;24.70;;;;;;;9.46;100.00;99153.69;125088;1103;104307;-80
2023/04/12 05:23:26;;;;;;;45.57;25.40;;;;;;;9.47;100.00;99158.09;124909;1102;103665;-82
2023/04/12 05:25:57;;;;;;;40.00;22.90;;;;;;;9.49;100.00;99158.08;125003;1102;103082;-82
2023/04/12 05:28:32;;;;;;;42.37;24.83;;;;;;;9.46;100.00;99156.31;124650;1100;104254;-81
2023/04/12 05:31:04;;;;;;;46.00;24.97;;;;;;;9.51;100.00;99159.89;125059;1102;104411;-82
2023/04/12 05:33:43;;;;;;;47.53;25.93;;;;;;;9.53;100.00;99162.53;124810;1102;104309;-82
2023/04/12 05:36:23;;;;;;;51.50;28.07;;;;;;;9.62;100.00;99160.08;125688;1099;103265;-79
2023/04/12 05:38:55;;;;;;;48.27;25.63;;;;;;;9.71;100.00;99162.87;125465;1099;102911;-80
2023/04/12 05:41:28;;;;;;;49.15;26.00;;;;;;;9.78;100.00;99166.47;124826;1099;104229;-82
2023/04/12 05:44:03;;;;;;;50.20;25.73;;;;;;;9.81;100.00;99163.03;124763;1102;104338;-82
2023/04/12 05:46:37;;;;;;;49.30;25.87;;;;;;;9.81;100.00;99165.65;125069;1102;103986;-79
2023/04/12 05:49:08;;;;;;;44.00;23.13;;;;;;;9.81;100.00;99168.27;124449;1102;104217;-80
2023/04/12 05:51:45;;;;;;;42.07;22.00;;;;;;;9.77;100.00;99169.06;125014;1099;104185;-80
2023/04/12 05:54:24;;;;;;;42.47;23.03;;;;;;;9.69;100.00;99166.30;124714;1099;104136;-81
2023/04/12 05:56:56;;;;;;;43.03;22.47;;;;;;;9.69;100.00;99161.97;125258;1099;103028;-81
2023/04/12 05:59:30;;;;;;;40.53;22.37;;;;;;;9.72;100.00;99155.88;124997;1099;103431;-83
2023/04/12 06:02:04;;;;;;;44.77;23.70;;;;;;;9.70;100.00;99162.84;125172;1099;104063;-83
2023/04/12 06:04:37;;;;;;;38.17;21.87;;;;;;;9.72;100.00;99158.50;124737;1102;103300;-81
2023/04/12 06:07:09;;;;;;;44.83;25.20;;;;;;;9.78;100.00;99150.75;124818;1099;104162;-82
2023/04/12 06:09:41;;;;;;;39.30;22.63;;;;;;;9.86;100.00;99146.55;124853;1102;102605;-84
2023/04/12 06:12:13;;;;;;;43.77;22.47;;;;;;;9.98;100.00;99148.47;124796;1099;104159;-81
2023/04/12 06:14:44;;;;;;;46.60;23.15;;;;;;;10.08;100.00;99141.63;125301;1099;102086;-79
2023/04/12 06:17:16;;;;;;;44.37;22.73;;;;;;;10.11;100.00;99138.19;125068;1102;103366;-79
2023/04/12 06:19:57;;;;;;;39.50;21.70;;;;;;;10.15;100.00;99132.14;125003;1099;104197;-77
2023/04/12 06:22:31;;;;;;;37.33;20.50;;;;;;;10.16;100.00;99133.89;125683;1102;103114;-80
2023/04/12 06:25:07;;;;;;;37.33;20.90;;;;;;;10.20;100.00;99127.84;124882;1099;104335;-80
2023/04/12 06:27:38;;;;;;;42.73;23.00;;;;;;;10.24;100.00;99124.42;124825;1099;104248;-83
2023/04/12 06:30:13;;;;;;;45.33;23.70;;;;;;;10.28;100.00;99127.96;124805;1099;104211;-81
2023/04/12 06:32:45;;;;;;;34.87;19.87;;;;;;;10.30;100.00;99134.09;124847;1100;103403;-80
2023/04/12 06:35:17;;;;;;;37.53;21.53;;;;;;;10.30;100.00;99129.76;124758;1102;102652;-81
2023/04/12 06:37:49;;;;;;;37.23;22.13;;;;;;;10.35;100.00;99128.11;124804;1099;102476;-79
2023/04/12 06:40:20;;;;;;;38.53;19.97;;;;;;;10.46;100.00;99124.77;124969;1099;104361;-80
2023/04/12 06:42:52;;;;;;;38.23;20.50;;;;;;;10.49;100.00;99120.44;124973;1099;104002;-81
2023/04/12 06:45:28;;;;;;;37.13;21.00;;;;;;;10.54;100.00;99110.88;124886;1099;103093;-84
2023/04/12 06:47:59;;;;;;;33.50;19.10;;;;;;;10.56;100.00;99114.40;125596;1099;102415;-80
2023/04/12 06:50:31;;;;;;;34.67;19.77;;;;;;;10.59;100.00;99110.95;125551;1102;104169;-80
2023/04/12 06:53:02;;;;;;;36.20;19.03;;;;;;;10.66;100.00;99112.80;124788;1098;104126;-78
2023/04/12 06:55:34;;;;;;;35.65;19.65;;;;;;;10.73;100.00;99113.75;124836;1099;104226;-79
2023/04/12 06:58:06;;;;;;;36.20;19.50;;;;;;;10.82;100.00;99107.75;124752;1099;103389;-80
2023/04/12 07:00:37;;;;;;;36.20;19.67;;;;;;;10.89;100.00;99112.19;124805;1098;104207;-78
2023/04/12 07:03:10;;;;;;;32.93;19.03;;;;;;;10.86;100.00;99107.81;125181;1099;103233;-80
2023/04/12 07:05:43;;;;;;;32.50;18.23;;;;;;;10.84;100.00;99113.89;125327;1099;104194;-82
2023/04/12 07:08:18;;;;;;;32.23;17.87;;;;;;;10.85;100.00;99108.66;125329;1099;103695;-82
2023/04/12 07:10:55;;;;;;;30.27;16.57;;;;;;;10.87;100.00;99108.68;125447;1099;103147;-80
2023/04/12 07:13:29;;;;;;;31.90;17.10;;;;;;;10.88;100.00;99102.58;125184;1099;102629;-81
2023/04/12 07:16:00;;;;;;;31.70;16.77;;;;;;;10.97;100.00;99110.56;124671;1099;104263;-81
2023/04/12 07:18:33;;;;;;;33.23;16.57;;;;;;;11.12;100.00;99112.47;124607;1099;104296;-83
2023/04/12 07:21:06;;;;;;;33.70;18.77;;;;;;;11.20;100.00;99095.05;124655;1099;104242;-81
2023/04/12 07:23:38;;;;;;;31.60;17.93;;;;;;;11.25;100.00;99098.62;124885;1099;104169;-81
2023/04/12 07:26:10;;;;;;;29.80;17.77;;;;;;;11.30;100.00;99093.42;125109;1099;104172;-83
2023/04/12 07:28:41;;;;;;;33.27;18.87;;;;;;;11.33;100.00;99094.32;124997;1099;104245;-78
2023/04/12 07:31:13;;;;;;;32.93;17.90;;;;;;;11.43;100.00;99090.03;124855;1099;104686;-79
2023/04/12 07:33:44;;;;;;;32.73;17.30;;;;;;;11.56;100.00;99100.66;124727;1099;104529;-80
2023/04/12 07:36:19;;;;;;;31.17;16.93;;;;;;;11.64;100.00;99101.59;124577;1102;104105;-81
2023/04/12 07:38:54;;;;;;;34.83;17.87;;;;;;;11.67;100.00;99099.00;124778;1099;104300;-80
2023/04/12 07:41:25;;;;;;;30.30;16.97;;;;;;;11.65;100.00;99090.23;124685;1099;102173;-78
2023/04/12 07:43:57;;;;;;;31.23;16.77;;;;;;;11.72;100.00;99094.69;125034;1099;104403;-79
2023/04/12 07:46:29;;;;;;;30.63;16.00;;;;;;;11.69;100.00;99107.80;125312;1099;104623;-79
2023/04/12 07:49:06;;;;;;;31.70;16.47;;;;;;;11.67;100.00;99101.63;124925;1099;102881;-79
2023/04/12 07:51:38;;;;;;;31.20;16.07;;;;;;;11.77;100.00;99102.61;125147;1098;104162;-80
2023/04/12 07:54:09;;;;;;;29.83;17.10;;;;;;;11.85;100.00;99104.41;125015;1099;104246;-81
2023/04/12 07:56:41;;;;;;;28.53;15.63;;;;;;;12.01;100.00;99112.45;124864;1099;104224;-80
2023/04/12 07:59:13;;;;;;;27.13;13.67;;;;;;;12.05;100.00;99108.99;124986;1099;104232;-80
2023/04/12 08:01:45;;;;;;;26.50;14.63;;;;;;;12.01;100.00;99107.20;124834;1099;103774;-81
2023/04/12 08:04:17;;;;;;;28.10;14.55;;;;;;;11.98;100.00;99112.43;124747;1099;101977;-79
2023/04/12 08:06:51;;;;;;;26.53;15.17;;;;;;;11.96;100.00;99115.05;124846;1099;102282;-82
2023/04/12 08:09:23;;;;;;;26.30;14.87;;;;;;;12.04;100.00;99121.27;124756;1099;103963;-84
2023/04/12 08:11:58;;;;;;;29.53;15.37;;;;;;;12.20;100.00;99126.61;125591;1099;104207;-81
2023/04/12 08:14:29;;;;;;;26.63;14.93;;;;;;;12.33;100.00;99128.47;125168;1099;102058;-80
2023/04/12 08:17:04;;;;;;;28.67;14.90;;;;;;;12.49;100.00;99128.56;125004;1099;104111;-81
2023/04/12 08:19:36;;;;;;;29.37;15.75;;;;;;;12.68;100.00;99134.80;124901;1099;102045;-81
2023/04/12 08:22:08;;;;;;;24.93;14.03;;;;;;;12.87;100.00;99133.14;126146;1099;101612;-80
2023/04/12 08:24:39;;;;;;;23.40;13.40;;;;;;;12.92;100.00;99119.13;126222;1099;102546;-82
2023/04/12 08:27:12;;;;;;;27.20;14.93;;;;;;;12.97;100.00;99126.18;125325;1099;104175;-79
2023/04/12 08:29:44;;;;;;;29.73;16.50;;;;;;;12.93;100.00;99107.73;124828;1099;103062;-81
2023/04/12 08:32:18;;;;;;;25.10;14.33;;;;;;;12.87;100.00;99105.08;124707;1099;104165;-82
2023/04/12 08:34:50;;;;;;;;;;;;;;;12.85;100.00;99103.30;124701;1099;104086;-78
2023/04/12 08:37:22;;;;;;;28.53;15.10;;;;;;;12.83;100.00;99099.80;124662;1099;103470;-80
2023/04/12 08:39:53;;;;;;;27.20;13.63;;;;;;;12.81;100.00;99099.79;125468;1099;104190;-79
2023/04/12 08:42:25;;;;;;;27.67;12.50;;;;;;;12.88;100.00;99093.66;125012;1099;104208;-80
2023/04/12 08:44:57;;;;;;;26.10;13.67;;;;;;;13.03;100.00;99091.97;124672;1099;104268;-81
2023/04/12 08:47:30;;;;;;;24.03;12.17;;;;;;;13.22;100.00;99091.12;124814;1102;104553;-82
2023/04/12 08:50:04;;;;;;;25.03;11.73;;;;;;;13.46;100.00;99087.72;125462;1102;104360;-81
2023/04/12 08:52:49;;;;;;;18.87;10.10;;;;;;;13.55;100.00;99076.28;125595;1099;102114;-78
2023/04/12 08:55:30;;;;;;;21.17;10.55;;;;;;;13.57;100.00;99074.55;125165;1099;102758;-81
2023/04/12 08:58:08;;;;;;;21.50;10.67;;;;;;;13.54;100.00;99085.09;125063;1099;104283;-82
2023/04/12 09:00:41;;;;;;;18.20;9.23;;;;;;;13.48;100.00;99085.08;124715;1099;104217;-79
2023/04/12 09:03:15;;;;;;;23.98;11.50;;;;;;;13.36;100.00;99090.33;124771;1102;104206;-79
2023/04/12 09:05:49;;;;;;;19.93;9.93;;;;;;;13.24;100.00;99089.37;124687;1102;104176;-81
2023/04/12 09:08:22;;;;;;;21.77;11.30;;;;;;;13.17;100.00;99087.62;125040;1099;102748;-82
2023/04/12 09:10:53;;;;;;;23.97;12.47;;;;;;;13.20;100.00;99087.63;124982;1099;104345;-79
2023/04/12 09:13:35;;;;;;;23.03;10.67;;;;;;;13.27;100.00;99089.38;124861;1099;104272;-80
2023/04/12 09:16:11;;;;;;;21.30;10.00;;;;;;;13.39;100.00;99091.20;124842;1102;104246;-80
2023/04/12 09:21:57;;;;;;;20.88;10.88;;;;;;;13.46;100.00;99103.52;116124;1102;10001855;-78
2023/04/12 09:24:30;;;;;;;18.47;10.20;;;;;;;13.47;100.00;99109.66;124498;1104;102233;-77
2023/04/12 09:27:13;;;;;;;21.50;10.40;;;;;;;13.39;100.00;99106.14;124503;1105;104214;-81
2023/04/12 09:30:10;;;;;;;20.37;10.33;;;;;;;13.26;100.00;99113.08;124492;1105;104223;-79
2023/04/12 09:32:43;;;;;;;22.10;9.80;;;;;;;13.19;100.00;99117.46;124549;1102;107665;-78
2023/04/12 09:35:16;;;;;;;16.97;9.30;;;;;;;13.06;100.00;99113.92;124676;1103;102681;-79
2023/04/12 09:38:07;;;;;;;17.30;9.47;;;;;;;12.89;100.00;99108.59;124625;1105;104164;-82
2023/04/12 09:40:42;;;;;;;18.70;9.57;;;;;;;12.76;100.00;99115.56;125273;1102;104168;-81
2023/04/12 09:43:14;;;;;;;20.00;10.37;;;;;;;12.71;100.00;99117.27;124792;1105;103824;-79
2023/04/12 09:45:45;;;;;;;24.47;11.00;;;;;;;12.68;100.00;99116.38;124739;1105;104213;-75
2023/04/12 09:48:22;;;;;;;21.50;11.47;;;;;;;12.68;100.00;99116.38;124468;1105;102362;-79
2023/04/12 09:51:06;;;;;;;21.13;10.40;;;;;;;12.65;100.00;99122.50;124317;1105;103743;-81
2023/04/12 09:53:47;;;;;;;18.30;8.53;;;;;;;12.58;100.00;99121.59;124725;1106;104352;-80
2023/04/12 09:56:22;;;;;;;19.13;9.17;;;;;;;12.61;100.00;99117.24;124623;1102;104159;-79
2023/04/12 09:59:04;;;;;;;18.87;10.27;;;;;;;12.72;100.00;99116.41;124691;1102;104182;-82
2023/04/12 10:01:39;;;;;;;16.47;9.00;;;;;;;12.97;100.00;99113.02;124836;1102;104245;-78
2023/04/12 10:04:12;;;;;;;16.62;8.63;;;;;;;13.20;100.00;99115.70;124644;1105;103623;-80
2023/04/12 10:06:48;;;;;;;18.53;9.23;;;;;;;13.34;100.00;99113.14;124767;1104;102914;-80
2023/04/12 10:09:22;;;;;;;17.87;9.13;;;;;;;13.55;100.00;99115.81;124644;1104;104258;-80
2023/04/12 10:11:58;;;;;;;17.27;9.08;;;;;;;13.72;100.00;99114.97;124735;1105;104243;-81
2023/04/12 10:14:31;;;;;;;18.70;9.20;;;;;;;13.82;99.76;99107.06;124826;1102;102253;-79
2023/04/12 10:17:06;;;;;;;18.90;9.67;;;;;;;13.98;100.00;99118.48;125976;1102;102503;-78
2023/04/12 10:19:39;;;;;;;17.17;8.40;;;;;;;14.09;100.00;99120.25;125907;1102;104359;-80
2023/04/12 10:22:12;;;;;;;14.37;7.50;;;;;;;14.07;96.59;99114.08;125930;1102;102679;-78
2023/04/12 10:24:46;;;;;;;17.50;8.97;;;;;;;14.09;100.00;99114.98;125954;1105;102600;-78
2023/04/12 10:27:27;;;;;;;17.63;8.27;;;;;;;14.09;100.00;99110.57;125852;1104;102905;-81
2023/04/12 10:30:23;;;;;;;18.87;8.87;;;;;;;14.09;99.12;99104.42;125880;1105;102661;-79
2023/04/12 10:33:15;;;;;;;17.50;8.40;;;;;;;14.12;99.75;99110.56;125749;1103;102967;-79
2023/04/12 10:36:01;;;;;;;19.07;8.47;;;;;;;14.14;99.12;99102.66;125881;1104;101958;-78
2023/04/12 10:39:01;;;;;;;18.10;7.90;;;;;;;14.17;95.81;99105.29;125836;1105;102713;-79
2023/04/12 10:41:37;;;;;;;15.70;8.73;;;;;;;14.31;100.00;99100.86;125989;1103;102768;-79
2023/04/12 10:44:25;;;;;;;21.80;9.07;;;;;;;14.42;100.00;99100.84;125681;1105;118329;-80
2023/04/12 10:46:57;;;;;;;17.57;7.93;;;;;;;14.50;98.63;99096.41;125796;1103;102795;-78
2023/04/12 10:49:31;;;;;;;18.13;8.43;;;;;;;14.54;99.61;99097.30;125897;1105;102265;-79
2023/04/12 10:52:15;;;;;;;17.70;7.90;;;;;;;14.51;99.07;99097.31;125952;1104;102864;-79
2023/04/12 10:54:47;;;;;;;17.97;7.80;;;;;;;14.37;95.40;99100.85;125974;1102;102386;-80
2023/04/12 10:57:48;;;;;;;15.00;6.97;;;;;;;14.24;94.70;99106.15;125763;1104;103398;-80
2023/04/12 11:00:21;;;;;;;15.33;7.50;;;;;;;14.08;93.00;99106.16;125796;1102;102162;-79
2023/04/12 11:03:12;;;;;;;17.07;8.20;;;;;;;13.97;95.48;99097.39;125862;1102;102031;-78
2023/04/12 11:06:03;;;;;;;17.33;8.03;;;;;;;13.96;94.91;99095.62;117320;1104;10001447;-78
2023/04/12 11:09:16;;;;;;;15.13;7.22;;;;;;;13.96;92.20;99085.07;125498;1109;102114;-78
2023/04/12 11:11:51;;;;;;;18.00;8.30;;;;;;;14.00;92.79;99089.47;125663;1105;102015;-78
2023/04/12 11:14:30;;;;;;;15.00;7.87;;;;;;;14.08;90.03;99092.11;126167;1099;102800;-79
2023/04/12 11:17:21;;;;;;;16.47;8.63;;;;;;;14.23;93.55;99091.19;126444;1099;101976;-78
2023/04/12 11:19:56;;;;;;;17.50;8.30;;;;;;;14.35;91.88;99085.89;126166;1101;103099;-80
2023/04/12 11:22:31;;;;;;;18.10;8.07;;;;;;;14.52;91.27;99084.11;126143;1099;102667;-79
2023/04/12 11:25:04;;;;;;;15.10;6.90;;;;;;;14.56;86.53;99085.84;126091;1099;101810;-78
2023/04/12 11:27:37;;;;;;;14.13;7.50;;;;;;;14.67;88.53;99088.48;126350;1102;102250;-79
2023/04/12 11:30:13;;;;;;;15.80;7.43;;;;;;;14.79;87.93;99090.20;126079;1099;102866;-79
2023/04/12 11:32:49;;;;;;;16.73;7.40;;;;;;;14.91;89.37;99097.18;125645;1099;104052;-79
2023/04/12 11:35:26;;;;;;;13.80;7.43;;;;;;;14.99;89.51;99090.12;124886;1099;104252;-78
2023/04/12 11:38:01;;;;;;;13.47;6.93;;;;;;;15.01;90.63;99088.34;125043;1099;102529;-79
2023/04/12 11:43:24;;;;;;;13.37;6.90;;;;;;;15.00;90.39;99099.78;124993;1100;104360;-79
2023/04/12 11:46:02;;;;;;;14.23;7.07;;;;;;;14.94;89.76;99091.02;125031;1099;118712;-79
2023/04/12 11:48:37;;;;;;;14.87;7.27;;;;;;;14.97;90.65;99091.88;125018;1099;104194;-80